Time;durP1;ratioP1;P1;durP2;ratioP2;P2;SDS_P1;SDS_P2;PMS_P1;PMS_P2;Temp;Humidity;BMP_temperature;BMP_pressure;BME280_temperature;BME280_humidity;BME280_pressure;Samples;Min_cycle;Max_cycle;Signal;HPM_P1;HPM_P2
2021/03/20 00:02:01;;;;;;;5.55;2.60;;;;;;;;;;4970353;28;20043;-83
2021/03/20 00:04:32;;;;;;;4.82;3.00;;;-0.80;99.90;;;;;;4970824;28;20039;-83
2021/03/20 00:07:01;;;;;;;3.40;1.70;;;;;;;;;;4968593;28;20043;-83
2021/03/20 00:09:29;;;;;;;7.57;1.65;;;-0.80;99.90;;;;;;4981085;28;20026;-84
2021/03/20 00:11:59;;;;;;;4.57;1.58;;;-0.80;99.90;;;;;;4977399;28;20038;-84
2021/03/20 00:14:28;;;;;;;4.72;1.90;;;-0.80;99.90;;;;;;4991353;28;20166;-83
2021/03/20 00:17:00;;;;;;;6.05;2.53;;;;;;;;;;4966437;28;20035;-82
2021/03/20 00:19:30;;;;;;;2.97;1.90;;;;;;;;;;4995285;28;20019;-84
2021/03/20 00:22:02;;;;;;;5.25;2.92;;;;;;;;;;4988247;28;20022;-83
2021/03/20 00:24:30;;;;;;;6.90;2.30;;;;;;;;;;4981500;28;20095;-83
2021/03/20 00:26:57;;;;;;;7.15;3.35;;;;;;;;;;4974132;28;20081;-81
2021/03/20 00:29:23;;;;;;;2.97;1.85;;;;;;;;;;4979888;28;20023;-81
2021/03/20 00:31:48;;;;;;;3.22;2.22;;;-0.70;99.90;;;;;;4984753;28;20130;-79
2021/03/20 00:34:18;;;;;;;3.47;1.42;;;;;;;;;;4966046;28;20109;-79
2021/03/20 00:36:48;;;;;;;5.45;1.90;;;;;;;;;;4986625;28;20038;-78
2021/03/20 00:39:14;;;;;;;5.43;1.95;;;;;;;;;;4990940;28;20038;-78
2021/03/20 00:41:44;;;;;;;2.50;1.88;;;;;;;;;;4987092;28;20019;-80
2021/03/20 00:44:10;;;;;;;7.45;2.70;;;-0.60;99.90;;;;;;4992146;28;20340;-82
2021/03/20 00:46:36;;;;;;;3.58;1.77;;;;;;;;;;4985583;28;20120;-78
2021/03/20 00:49:05;;;;;;;4.78;2.10;;;-0.60;99.90;;;;;;4987022;28;20035;-79
2021/03/20 00:51:37;;;;;;;5.13;1.95;;;-0.60;99.90;;;;;;4987008;28;20036;-79
2021/03/20 00:54:02;;;;;;;5.53;2.03;;;-0.60;99.90;;;;;;4990515;28;20091;-80
2021/03/20 00:56:32;;;;;;;4.28;1.88;;;;;;;;;;4993124;28;20039;-79
2021/03/20 00:59:18;;;;;;;3.63;1.70;;;-0.60;99.90;;;;;;4985733;28;20038;-83
2021/03/20 01:01:44;;;;;;;7.57;2.35;;;;;;;;;;4979833;28;20081;-84
2021/03/20 01:04:28;;;;;;;3.85;2.10;;;-0.50;99.90;;;;;;4993752;28;20034;-84
2021/03/20 01:07:02;;;;;;;4.05;2.25;;;;;;;;;;4957837;28;20535;-84
2021/03/20 01:09:32;;;;;;;5.32;2.10;;;;;;;;;;4979619;28;20043;-83
2021/03/20 01:12:04;;;;;;;3.95;1.90;;;;;;;;;;4979506;28;20030;-85
2021/03/20 01:14:31;;;;;;;2.47;1.55;;;;;;;;;;4958873;28;20429;-78
2021/03/20 01:16:57;;;;;;;4.07;1.88;;;;;;;;;;4971777;28;20037;-79
2021/03/20 01:19:23;;;;;;;4.55;1.63;;;-0.60;99.90;;;;;;4974007;28;20086;-78
2021/03/20 01:21:49;;;;;;;3.20;1.60;;;-0.60;99.90;;;;;;4984385;28;20101;-79
2021/03/20 01:24:14;;;;;;;4.80;1.70;;;-0.60;99.90;;;;;;4977738;28;20038;-78
2021/03/20 01:26:40;;;;;;;5.50;1.95;;;-0.60;99.90;;;;;;4977684;28;20027;-79
2021/03/20 01:29:06;;;;;;;4.63;2.05;;;-0.60;99.90;;;;;;4960799;28;20549;-79
2021/03/20 01:31:32;;;;;;;6.40;3.10;;;-0.60;99.90;;;;;;4974019;28;20061;-78
2021/03/20 01:33:58;;;;;;;5.57;1.88;;;-0.50;99.90;;;;;;4981323;28;20061;-78
2021/03/20 01:36:23;;;;;;;5.32;2.13;;;-0.50;99.90;;;;;;4967464;28;20512;-81
2021/03/20 01:38:52;;;;;;;3.28;2.05;;;-0.50;99.90;;;;;;4975665;28;20140;-79
2021/03/20 01:41:22;;;;;;;3.05;1.75;;;-0.40;99.90;;;;;;4958083;28;20030;-79
2021/03/20 01:43:48;;;;;;;3.25;1.85;;;-0.50;99.90;;;;;;4975416;28;20035;-79
2021/03/20 01:46:45;;;;;;;7.40;3.13;;;-0.40;99.90;;;;;;4979640;28;20380;-78
2021/03/20 01:49:40;;;;;;;5.35;1.90;;;-0.40;99.90;;;;;;4989536;28;20034;-79
2021/03/20 01:52:20;;;;;;;3.38;1.70;;;-0.50;99.90;;;;;;4962304;28;20054;-79
2021/03/20 01:55:10;;;;;;;5.20;1.80;;;-0.40;99.90;;;;;;4985404;28;20034;-79
2021/03/20 01:57:47;;;;;;;4.18;1.60;;;-0.40;99.90;;;;;;4975325;28;20405;-79
2021/03/20 02:00:29;;;;;;;4.95;1.90;;;-0.40;99.90;;;;;;4982850;28;20027;-79
2021/03/20 02:02:55;;;;;;;4.90;1.88;;;-0.40;99.90;;;;;;4981321;28;20041;-78
2021/03/20 02:05:27;;;;;;;3.45;1.52;;;-0.40;99.90;;;;;;4981830;28;20105;-78
2021/03/20 02:07:54;;;;;;;3.75;1.63;;;-0.40;99.90;;;;;;4978847;28;20036;-79
2021/03/20 02:10:21;;;;;;;5.70;1.88;;;-0.40;99.90;;;;;;4975073;28;20027;-79
2021/03/20 02:12:54;;;;;;;3.90;1.70;;;-0.40;99.90;;;;;;4986325;28;20026;-80
2021/03/20 02:15:38;;;;;;;4.45;2.17;;;-0.50;99.90;;;;;;4976827;28;20023;-81
2021/03/20 02:18:04;;;;;;;3.55;1.63;;;-0.40;99.90;;;;;;4977619;28;20033;-78
2021/03/20 02:21:09;;;;;;;12.05;2.55;;;-0.40;99.90;;;;;;4972794;28;20030;-78
2021/03/20 02:24:08;;;;;;;4.40;2.30;;;-0.40;99.90;;;;;;4970007;28;20030;-78
2021/03/20 02:27:18;;;;;;;5.20;1.98;;;-0.40;99.90;;;;;;4974853;28;20081;-78
2021/03/20 02:30:01;;;;;;;4.45;1.67;;;-0.40;99.90;;;;;;4968222;28;20619;-79
2021/03/20 02:32:51;;;;;;;2.53;1.67;;;-0.30;99.90;;;;;;4971014;28;20038;-79
2021/03/20 02:35:28;;;;;;;3.42;2.00;;;-0.40;99.90;;;;;;4977717;28;20027;-79
2021/03/20 02:38:12;;;;;;;3.95;2.10;;;-0.40;99.90;;;;;;4967976;28;20023;-78
2021/03/20 02:40:52;;;;;;;2.58;1.40;;;-0.30;99.90;;;;;;4968933;28;20077;-77
2021/03/20 02:43:32;;;;;;;2.47;1.65;;;-0.40;99.90;;;;;;4970465;28;20031;-77
2021/03/20 02:46:17;;;;;;;4.47;2.03;;;-0.30;99.90;;;;;;4967050;28;20033;-78
2021/03/20 02:49:11;;;;;;;4.07;2.40;;;-0.30;99.90;;;;;;4971604;28;20069;-78
2021/03/20 02:51:55;;;;;;;4.70;1.90;;;-0.30;99.90;;;;;;4969330;28;20053;-78
2021/03/20 02:54:52;;;;;;;3.35;1.92;;;-0.20;99.90;;;;;;4972250;28;20050;-78
2021/03/20 02:57:24;;;;;;;2.80;1.83;;;-0.30;99.90;;;;;;4975437;28;20468;-78
2021/03/20 02:59:59;;;;;;;4.38;1.95;;;-0.30;99.90;;;;;;4966165;28;20485;-78
2021/03/20 03:02:28;;;;;;;5.60;2.00;;;-0.30;99.90;;;;;;4969430;28;20031;-79
2021/03/20 03:05:36;;;;;;;5.97;1.73;;;-0.30;99.90;;;;;;4967150;28;20385;-78
2021/03/20 03:08:10;;;;;;;4.28;1.77;;;-0.30;99.90;;;;;;4984146;28;20113;-78
2021/03/20 03:10:44;;;;;;;2.78;1.42;;;-0.20;99.90;;;;;;4950692;29;20045;-78
2021/03/20 03:13:33;;;;;;;3.38;1.73;;;-0.20;99.90;;;;;;4981115;28;20022;-80
2021/03/20 03:16:04;;;;;;;2.45;1.58;;;-0.20;99.90;;;;;;4956912;28;20037;-78
2021/03/20 03:18:40;;;;;;;5.65;2.72;;;-0.20;99.90;;;;;;4993506;28;20045;-79
2021/03/20 03:21:09;;;;;;;3.63;1.70;;;-0.20;99.90;;;;;;4975340;28;20489;-78
2021/03/20 03:23:39;;;;;;;3.38;1.50;;;0.00;99.90;;;;;;4981979;28;20035;-78
2021/03/20 03:26:20;;;;;;;2.80;1.50;;;-0.20;99.90;;;;;;4978539;28;20023;-78
2021/03/20 03:28:51;;;;;;;4.90;1.92;;;-0.20;99.90;;;;;;4982130;28;20054;-78
2021/03/20 03:31:22;;;;;;;3.00;1.65;;;-0.10;99.90;;;;;;4975774;28;20063;-77
2021/03/20 03:33:59;;;;;;;3.53;1.63;;;-0.10;99.90;;;;;;4963389;28;20022;-79
2021/03/20 03:36:29;;;;;;;2.38;1.40;;;-0.10;99.90;;;;;;4972896;28;20109;-79
2021/03/20 03:39:16;;;;;;;4.95;1.65;;;-0.10;99.90;;;;;;4968992;28;20461;-79
2021/03/20 03:41:41;;;;;;;5.07;1.90;;;-0.10;99.90;;;;;;4978659;28;20098;-82
2021/03/20 03:44:08;;;;;;;2.72;1.70;;;-0.10;99.90;;;;;;4978281;28;20058;-80
2021/03/20 03:46:37;;;;;;;4.03;1.80;;;-0.20;99.90;;;;;;4968161;28;20085;-81
2021/03/20 03:49:08;;;;;;;6.45;2.08;;;-0.20;99.90;;;;;;4970809;28;20520;-81
2021/03/20 03:51:35;;;;;;;2.55;1.30;;;-0.20;99.90;;;;;;4978616;28;20358;-80
2021/03/20 03:54:01;;;;;;;3.55;1.75;;;-0.20;99.90;;;;;;4970886;28;20481;-80
2021/03/20 03:56:59;;;;;;;2.10;1.27;;;-0.20;99.90;;;;;;4971417;28;20050;-79
2021/03/20 03:59:53;;;;;;;3.70;1.70;;;-0.20;99.90;;;;;;4973716;28;20034;-80
2021/03/20 04:02:27;;;;;;;3.67;1.55;;;-0.20;99.90;;;;;;4976631;28;20027;-79
2021/03/20 04:05:11;;;;;;;5.22;1.73;;;-0.20;99.90;;;;;;4973702;28;20492;-79
2021/03/20 04:08:11;;;;;;;5.53;2.10;;;-0.20;99.90;;;;;;4980020;28;20121;-78
2021/03/20 04:10:51;;;;;;;4.43;1.65;;;-0.10;99.90;;;;;;4991020;28;20035;-78
2021/03/20 04:13:29;;;;;;;3.10;1.85;;;-0.10;99.90;;;;;;4964297;28;20114;-78
2021/03/20 04:16:14;;;;;;;4.93;1.67;;;0.00;99.90;;;;;;4968850;28;20031;-78
2021/03/20 04:19:16;;;;;;;2.92;1.70;;;0.00;99.90;;;;;;4969435;28;20030;-79
2021/03/20 04:21:50;;;;;;;3.72;1.52;;;-0.10;99.90;;;;;;4950882;28;20027;-78
2021/03/20 04:24:39;;;;;;;4.05;2.20;;;-0.10;99.90;;;;;;4970066;28;20031;-77
2021/03/20 04:27:12;;;;;;;2.67;1.75;;;-0.10;99.90;;;;;;4971110;28;20065;-77
2021/03/20 04:29:47;;;;;;;3.80;1.77;;;-0.20;99.90;;;;;;4973350;28;20027;-80
2021/03/20 04:32:24;;;;;;;4.88;1.75;;;-0.10;99.90;;;;;;4974967;28;20488;-77
2021/03/20 04:35:08;;;;;;;3.78;1.95;;;-0.20;99.90;;;;;;4967507;28;20054;-78
2021/03/20 04:37:38;;;;;;;3.25;2.40;;;-0.20;99.90;;;;;;4973028;28;20062;-79
2021/03/20 04:40:08;;;;;;;3.90;2.17;;;-0.10;99.90;;;;;;4967041;28;20023;-79
2021/03/20 04:42:37;;;;;;;3.67;1.88;;;-0.10;99.90;;;;;;4977517;28;20031;-78
2021/03/20 04:45:15;;;;;;;4.47;1.90;;;-0.10;99.90;;;;;;4967270;28;20074;-78
2021/03/20 04:47:41;;;;;;;4.63;1.88;;;-0.10;99.90;;;;;;4956451;28;20030;-78
2021/03/20 04:50:17;;;;;;;2.55;1.60;;;-0.10;99.90;;;;;;4970661;28;20429;-78
2021/03/20 04:52:46;;;;;;;6.00;1.60;;;0.00;99.90;;;;;;4969994;28;20449;-77
2021/03/20 04:55:12;;;;;;;4.20;1.63;;;0.00;99.90;;;;;;4967940;28;20024;-78
2021/03/20 04:57:45;;;;;;;3.90;1.90;;;0.10;99.90;;;;;;4970030;28;20091;-78
2021/03/20 05:00:30;;;;;;;5.30;2.10;;;0.10;99.90;;;;;;4957192;28;20058;-77
2021/03/20 05:03:20;;;;;;;4.28;2.05;;;0.10;99.90;;;;;;4967974;28;20035;-77
2021/03/20 05:05:51;;;;;;;4.70;2.28;;;0.00;99.90;;;;;;4975315;28;20027;-80
2021/03/20 05:08:24;;;;;;;4.65;2.15;;;0.00;99.90;;;;;;4973073;28;20030;-79
2021/03/20 05:10:56;;;;;;;3.60;2.10;;;-0.10;99.90;;;;;;4959504;28;20039;-78
2021/03/20 05:13:24;;;;;;;5.47;1.95;;;-0.10;99.90;;;;;;4979276;28;20026;-79
2021/03/20 05:15:51;;;;;;;4.50;2.15;;;-0.10;99.90;;;;;;4978787;28;20039;-79
2021/03/20 05:18:17;;;;;;;3.75;1.88;;;0.00;99.90;;;;;;4970445;28;20023;-80
2021/03/20 05:20:43;;;;;;;6.15;2.20;;;0.00;99.90;;;;;;4982539;28;20031;-79
2021/03/20 05:23:11;;;;;;;4.25;1.80;;;0.10;99.90;;;;;;4970181;28;20099;-78
2021/03/20 05:25:36;;;;;;;5.22;1.83;;;0.10;99.90;;;;;;4977537;28;20034;-78
2021/03/20 05:28:02;;;;;;;6.00;2.20;;;0.20;99.90;;;;;;4980578;28;20039;-80
2021/03/20 05:30:27;;;;;;;4.88;3.05;;;0.20;99.90;;;;;;4985485;28;20412;-79
2021/03/20 05:32:53;;;;;;;7.03;1.85;;;0.20;99.90;;;;;;4975899;28;20026;-78
2021/03/20 05:35:23;;;;;;;4.32;1.98;;;0.30;99.90;;;;;;4953705;28;20023;-78
2021/03/20 05:37:49;;;;;;;4.05;2.20;;;0.30;99.90;;;;;;4953721;28;20440;-77
2021/03/20 05:40:20;;;;;;;3.85;1.98;;;0.40;99.90;;;;;;4970226;28;20023;-79
2021/03/20 05:43:24;;;;;;;1.83;1.60;;;0.40;99.90;;;;;;4960838;28;20422;-78
2021/03/20 05:46:07;;;;;;;4.80;1.60;;;0.50;99.90;;;;;;4970670;28;20033;-78
2021/03/20 05:48:36;;;;;;;2.08;1.33;;;0.50;99.90;;;;;;4979944;28;20055;-78
2021/03/20 05:51:31;;;;;;;3.42;1.65;;;0.70;99.90;;;;;;4952864;28;20050;-78
2021/03/20 05:54:32;;;;;;;3.47;1.70;;;0.70;99.90;;;;;;4972176;28;20396;-78
2021/03/20 05:57:15;;;;;;;3.47;2.13;;;0.80;99.90;;;;;;4979337;28;20688;-78
2021/03/20 05:59:50;;;;;;;4.88;2.13;;;0.80;99.90;;;;;;4961797;28;20283;-78
2021/03/20 06:02:47;;;;;;;4.50;2.72;;;0.90;99.90;;;;;;4967662;28;20027;-78
2021/03/20 06:05:50;;;;;;;5.35;2.00;;;0.90;99.90;;;;;;4971984;28;20079;-78
2021/03/20 06:08:46;;;;;;;5.95;2.00;;;1.10;99.90;;;;;;4964851;28;20528;-79
2021/03/20 06:11:23;;;;;;;7.95;2.20;;;1.20;99.90;;;;;;4969886;28;20129;-78
2021/03/20 06:14:03;;;;;;;3.63;2.00;;;1.20;99.90;;;;;;4970431;28;20019;-78
2021/03/20 06:16:37;;;;;;;2.92;1.95;;;1.30;99.90;;;;;;4968264;28;20429;-79
2021/03/20 06:19:33;;;;;;;4.32;2.25;;;1.40;99.90;;;;;;4971914;28;20031;-79
2021/03/20 06:22:11;;;;;;;4.85;2.10;;;1.30;99.90;;;;;;4968650;28;20039;-78
2021/03/20 06:24:36;;;;;;;5.93;1.90;;;1.40;99.90;;;;;;4975760;28;20031;-78
2021/03/20 06:27:03;;;;;;;3.28;2.00;;;1.30;99.90;;;;;;4975134;28;20031;-77
2021/03/20 06:29:35;;;;;;;4.93;1.85;;;1.50;99.90;;;;;;4971278;28;20047;-79
2021/03/20 06:32:22;;;;;;;6.13;2.75;;;1.40;99.90;;;;;;4975521;28;20392;-80
2021/03/20 06:35:11;;;;;;;9.25;2.60;;;1.50;99.70;;;;;;4979173;28;20055;-79
2021/03/20 06:37:40;;;;;;;7.43;2.17;;;1.50;99.90;;;;;;4978691;28;20039;-78
2021/03/20 06:40:21;;;;;;;4.03;1.92;;;1.70;99.90;;;;;;4972586;28;20026;-79
2021/03/20 06:42:48;;;;;;;5.63;2.10;;;1.70;99.20;;;;;;4960421;28;20058;-77
2021/03/20 06:45:27;;;;;;;3.95;1.95;;;1.80;98.20;;;;;;4974178;28;20370;-77
2021/03/20 06:47:58;;;;;;;5.90;2.78;;;2.00;97.30;;;;;;4979759;28;20046;-79
2021/03/20 06:50:46;;;;;;;3.63;1.60;;;2.20;96.40;;;;;;4981570;28;20113;-77
2021/03/20 06:53:14;;;;;;;3.13;1.85;;;2.40;95.80;;;;;;4976410;28;20047;-78
2021/03/20 06:55:51;;;;;;;5.85;2.42;;;2.40;96.10;;;;;;4972229;28;20374;-78
2021/03/20 06:58:27;;;;;;;5.10;2.60;;;2.80;94.40;;;;;;4965382;28;20019;-78
2021/03/20 07:00:55;;;;;;;5.55;2.50;;;2.80;94.40;;;;;;4970373;28;20059;-77
2021/03/20 07:03:51;;;;;;;3.45;1.73;;;3.00;93.00;;;;;;4967727;28;20034;-78
2021/03/20 07:06:39;;;;;;;4.38;1.90;;;3.20;92.20;;;;;;4971227;28;20027;-76
2021/03/20 07:09:07;;;;;;;5.28;1.83;;;3.30;90.40;;;;;;4973734;28;20019;-78
2021/03/20 07:11:35;;;;;;;4.30;1.90;;;3.20;89.70;;;;;;4970711;28;20758;-77
2021/03/20 07:14:12;;;;;;;5.60;2.58;;;3.00;91.30;;;;;;4961412;28;20019;-78
2021/03/20 07:16:59;;;;;;;6.10;2.83;;;2.90;91.30;;;;;;4971872;28;20029;-77
2021/03/20 07:19:25;;;;;;;14.95;5.82;;;3.00;91.60;;;;;;4971500;28;20031;-77
2021/03/20 07:21:56;;;;;;;5.93;2.75;;;2.70;91.50;;;;;;4976164;28;20023;-77
2021/03/20 07:24:39;;;;;;;7.22;3.28;;;2.80;94.00;;;;;;4989591;28;20050;-77
2021/03/20 07:27:21;;;;;;;6.32;3.53;;;2.80;92.60;;;;;;4994467;28;20035;-78
2021/03/20 07:29:52;;;;;;;6.70;2.75;;;3.10;89.50;;;;;;4973252;28;20170;-80
2021/03/20 07:32:29;;;;;;;5.03;2.47;;;3.10;83.00;;;;;;4986420;28;20031;-78
2021/03/20 07:35:25;;;;;;;8.38;3.72;;;3.10;84.40;;;;;;4983116;28;20453;-77
2021/03/20 07:37:52;;;;;;;5.47;2.65;;;3.10;83.00;;;;;;4978108;28;20370;-76
2021/03/20 07:40:23;;;;;;;5.95;2.50;;;3.50;80.80;;;;;;4955296;28;20058;-77
2021/03/20 07:42:49;;;;;;;4.45;2.35;;;4.00;75.60;;;;;;4979026;28;20433;-77
2021/03/20 07:45:17;;;;;;;4.10;1.83;;;5.10;68.40;;;;;;4972688;28;20086;-77
2021/03/20 07:47:53;;;;;;;8.40;4.45;;;5.90;60.20;;;;;;4972441;28;20134;-77
2021/03/20 07:50:20;;;;;;;4.35;2.40;;;;;;;;;;4953000;28;20038;-76
2021/03/20 07:53:07;;;;;;;2.38;1.55;;;6.20;55.50;;;;;;4955799;28;20048;-77
2021/03/20 07:55:55;;;;;;;4.13;1.75;;;5.00;59.20;;;;;;4965341;28;20045;-76
2021/03/20 07:58:43;;;;;;;3.58;1.58;;;4.70;59.50;;;;;;4949127;28;20122;-77
2021/03/20 08:01:26;;;;;;;2.35;1.70;;;4.60;62.30;;;;;;4955369;28;20106;-77
2021/03/20 08:04:10;;;;;;;6.97;2.35;;;4.80;59.60;;;;;;4971523;28;20074;-77
2021/03/20 08:06:38;;;;;;;5.00;1.88;;;4.10;63.20;;;;;;4967414;28;20107;-76
2021/03/20 08:09:23;;;;;;;3.92;1.27;;;4.30;63.30;;;;;;4965691;28;20505;-76
2021/03/20 08:11:57;;;;;;;4.47;1.80;;;4.50;59.50;;;;;;4955068;28;20046;-77
2021/03/20 08:14:53;;;;;;;5.63;2.10;;;4.70;58.80;;;;;;4944219;29;20098;-77
2021/03/20 08:17:20;;;;;;;2.85;1.67;;;4.80;58.60;;;;;;4965870;28;20114;-76
2021/03/20 08:19:47;;;;;;;3.40;1.67;;;4.90;57.50;;;;;;4958926;28;20086;-77
2021/03/20 08:22:43;;;;;;;2.40;1.70;;;5.10;55.00;;;;;;4959250;28;20063;-77
2021/03/20 08:25:32;;;;;;;3.45;1.52;;;5.00;56.20;;;;;;4958370;28;20027;-76
2021/03/20 08:28:25;;;;;;;4.38;1.20;;;5.60;55.00;;;;;;4932083;29;20036;-76
2021/03/20 08:31:29;;;;;;;2.90;1.48;;;5.80;53.50;;;;;;4949892;28;20052;-76
2021/03/20 08:34:25;;;;;;;2.13;1.10;;;6.50;51.10;;;;;;4913930;28;20460;-75
2021/03/20 08:37:16;;;;;;;1.90;1.40;;;7.20;49.50;;;;;;4965321;28;20031;-76
2021/03/20 08:39:52;;;;;;;3.50;1.35;;;6.40;48.10;;;;;;4950935;28;20058;-76
2021/03/20 08:42:27;;;;;;;3.47;1.50;;;6.30;48.30;;;;;;4951004;29;20031;-77
2021/03/20 08:44:59;;;;;;;3.75;1.55;;;6.50;49.00;;;;;;4961640;28;20034;-76
2021/03/20 08:47:30;;;;;;;;;;;5.90;49.80;;;;;;4950735;29;20035;-76
2021/03/20 08:50:13;;;;;;;4.90;1.75;;;6.30;49.90;;;;;;4939334;29;19933;-77
2021/03/20 08:52:43;;;;;;;3.33;1.80;;;6.60;47.90;;;;;;4972577;28;20047;-76
2021/03/20 08:55:48;;;;;;;2.67;1.65;;;5.80;51.00;;;;;;4982543;28;20023;-77
2021/03/20 08:58:32;;;;;;;3.22;1.40;;;6.00;50.30;;;;;;4988296;28;20023;-76
2021/03/20 09:01:23;;;;;;;3.58;1.67;;;6.70;48.10;;;;;;4977133;28;20023;-76
2021/03/20 09:03:52;;;;;;;2.70;1.70;;;6.70;48.60;;;;;;4974042;28;20035;-77
2021/03/20 09:06:44;;;;;;;3.55;1.45;;;6.10;49.60;;;;;;4960675;28;20027;-77
2021/03/20 09:09:22;;;;;;;2.33;1.60;;;6.60;49.30;;;;;;4973793;28;20039;-77
2021/03/20 09:12:08;;;;;;;4.68;2.58;;;7.00;48.10;;;;;;4980707;28;20038;-78
2021/03/20 09:14:43;;;;;;;2.88;1.75;;;6.70;48.60;;;;;;4973484;28;20026;-76
2021/03/20 09:17:25;;;;;;;4.88;2.38;;;6.60;49.30;;;;;;4973124;28;20049;-75
2021/03/20 09:19:53;;;;;;;6.32;2.63;;;6.70;50.20;;;;;;4975878;28;20137;-75
2021/03/20 09:22:23;;;;;;;4.40;1.95;;;7.20;48.20;;;;;;4979257;28;20026;-77
2021/03/20 09:25:19;;;;;;;348.83;207.35;;;7.60;48.10;;;;;;4983145;28;20089;-79
2021/03/20 09:28:07;;;;;;;7.38;4.40;;;7.60;48.20;;;;;;4973248;28;20039;-83
2021/03/20 09:30:40;;;;;;;3.10;2.00;;;7.60;47.50;;;;;;4980172;28;20061;-81
2021/03/20 09:33:20;;;;;;;3.80;1.63;;;7.00;47.10;;;;;;4978731;28;20015;-80
2021/03/20 09:35:51;;;;;;;3.65;2.28;;;6.60;48.40;;;;;;4951583;28;20030;-79
2021/03/20 09:38:35;;;;;;;;;;;6.70;48.80;;;;;;4966376;28;20027;-81
2021/03/20 09:41:28;;;;;;;4.95;2.38;;;7.60;45.90;;;;;;4963017;28;20388;-81
2021/03/20 09:44:02;;;;;;;2.63;2.10;;;7.40;46.60;;;;;;4956321;28;20055;-76
2021/03/20 09:46:41;;;;;;;4.80;2.15;;;7.70;47.00;;;;;;4957743;28;20031;-78
2021/03/20 09:49:06;;;;;;;2.67;1.80;;;7.30;47.30;;;;;;4961396;28;20046;-77
2021/03/20 09:51:58;;;;;;;6.53;2.20;;;7.00;47.60;;;;;;4955060;28;20090;-76
2021/03/20 09:54:35;;;;;;;2.80;1.80;;;7.00;47.60;;;;;;4943815;28;20031;-76
2021/03/20 09:57:07;;;;;;;3.20;1.88;;;7.00;47.20;;;;;;4944385;28;20500;-75
2021/03/20 09:59:33;;;;;;;4.03;1.63;;;7.00;47.20;;;;;;4947190;28;20412;-75
2021/03/20 10:02:09;;;;;;;4.40;1.67;;;6.80;47.30;;;;;;4932019;28;20516;-77
2021/03/20 10:05:03;;;;;;;3.20;1.45;;;7.00;47.10;;;;;;4949463;28;20035;-75
2021/03/20 10:07:34;;;;;;;4.88;1.67;;;7.30;46.70;;;;;;4953087;28;20101;-75
2021/03/20 10:10:13;;;;;;;2.72;1.55;;;6.50;47.30;;;;;;4952398;28;20054;-74
2021/03/20 10:13:17;;;;;;;4.75;3.25;;;6.10;47.80;;;;;;4949937;28;20340;-79
2021/03/20 10:15:56;;;;;;;6.40;4.68;;;5.80;48.60;;;;;;4944681;28;20046;-78
2021/03/20 10:18:34;;;;;;;5.03;2.28;;;5.60;49.40;;;;;;4961895;28;20031;-79
2021/03/20 10:21:11;;;;;;;2.90;1.58;;;5.80;49.60;;;;;;4941496;28;20393;-82
2021/03/20 10:24:28;;;;;;;2.72;1.27;;;6.40;47.00;;;;;;4957573;28;20031;-85
2021/03/20 10:27:17;;;;;;;3.30;1.35;;;6.50;47.50;;;;;;4930955;29;20032;-86
2021/03/20 10:29:43;;;;;;;2.58;1.60;;;8.90;47.70;;;;;;4963741;28;20123;-84
2021/03/20 10:32:19;;;;;;;2.05;1.30;;;6.80;46.30;;;;;;4956423;28;20047;-86
2021/03/20 10:34:57;;;;;;;3.00;1.65;;;6.70;46.70;;;;;;4963334;28;20111;-83
2021/03/20 10:37:36;;;;;;;3.05;1.50;;;6.70;46.70;;;;;;4949614;29;20057;-85
2021/03/20 10:40:27;;;;;;;4.00;1.70;;;6.90;46.50;;;;;;4962466;28;20016;-85
2021/03/20 10:43:00;;;;;;;2.83;1.40;;;6.90;46.50;;;;;;4962810;28;20027;-82
2021/03/20 10:45:39;;;;;;;2.45;1.70;;;6.80;45.20;;;;;;4964765;29;20019;-84
2021/03/20 10:48:29;;;;;;;4.57;1.90;;;7.00;44.90;;;;;;4964478;29;20038;-84
2021/03/20 10:51:04;;;;;;;3.28;1.60;;;7.60;45.20;;;;;;4967483;28;20046;-85
2021/03/20 10:53:44;;;;;;;3.22;1.75;;;7.80;45.60;;;;;;5000484;28;20031;-85
2021/03/20 10:56:36;;;;;;;4.05;1.48;;;8.00;44.30;;;;;;4989668;28;20038;-86
2021/03/20 10:59:26;;;;;;;2.55;2.15;;;8.70;43.20;;;;;;5000829;28;20058;-86
2021/03/20 11:01:52;;;;;;;3.60;1.70;;;9.30;40.70;;;;;;4975877;28;20124;-83
2021/03/20 11:04:39;;;;;;;3.08;1.70;;;9.20;40.70;;;;;;5005810;23;20055;-84
2021/03/20 11:19:27;;;;;;;3.33;1.70;;;8.30;41.50;;;;;;5497976;23;20039;-87
2021/03/20 11:22:19;;;;;;;2.70;1.50;;;8.30;42.30;;;;;;4902063;29;20030;-87
2021/03/20 11:25:23;;;;;;;5.05;2.42;;;10.20;41.00;;;;;;4919019;29;20036;-87
2021/03/20 11:28:09;;;;;;;6.63;2.75;;;10.20;40.60;;;;;;4928948;29;20091;-86
2021/03/20 11:30:45;;;;;;;6.10;2.20;;;10.10;40.90;;;;;;4914049;29;20100;-86
2021/03/20 11:33:18;;;;;;;3.50;2.00;;;11.10;38.40;;;;;;4914996;29;20072;-85
2021/03/20 11:35:54;;;;;;;3.67;2.13;;;11.20;39.20;;;;;;4904243;29;20032;-85
2021/03/20 11:38:25;;;;;;;3.22;1.50;;;10.60;39.50;;;;;;4913381;29;20025;-85
2021/03/20 11:41:02;;;;;;;2.17;1.45;;;11.10;39.30;;;;;;4915508;29;20024;-86
2021/03/20 11:43:46;;;;;;;3.03;1.90;;;12.70;36.70;;;;;;4904698;29;20073;-87
2021/03/20 11:46:13;;;;;;;3.78;2.05;;;12.80;37.20;;;;;;4912473;29;20112;-87
2021/03/20 11:48:43;;;;;;;2.97;2.00;;;13.50;35.00;;;;;;4917167;29;20024;-88
2021/03/20 11:51:20;;;;;;;2.65;1.73;;;13.50;35.50;;;;;;4889845;29;20036;-89
2021/03/20 11:53:49;;;;;;;3.28;2.20;;;13.80;35.30;;;;;;4893375;29;20029;-88
2021/03/20 11:56:43;;;;;;;3.38;2.13;;;13.70;34.50;;;;;;4906964;29;20080;-90
2021/03/20 11:59:44;;;;;;;4.70;2.00;;;12.10;35.40;;;;;;4924355;29;20028;-87
2021/03/20 12:02:34;;;;;;;5.68;2.25;;;12.90;35.10;;;;;;4901069;29;20036;-86
2021/03/20 12:05:15;;;;;;;2.58;1.88;;;10.60;36.10;;;;;;4896362;29;20079;-87
2021/03/20 12:07:41;;;;;;;3.42;2.08;;;11.80;39.50;;;;;;4897070;29;20519;-86
2021/03/20 12:10:20;;;;;;;4.45;1.67;;;10.00;38.20;;;;;;4890427;29;20052;-87
2021/03/20 12:12:54;;;;;;;4.03;2.40;;;10.80;38.00;;;;;;4898751;29;20028;-85
2021/03/20 12:15:33;;;;;;;3.03;2.10;;;10.00;37.40;;;;;;4896049;29;20033;-87
2021/03/20 12:18:11;;;;;;;5.40;2.50;;;10.00;37.90;;;;;;4907559;29;20088;-87
2021/03/20 12:20:45;;;;;;;3.67;1.75;;;10.70;37.80;;;;;;4910012;29;20116;-86
2021/03/20 12:23:25;;;;;;;3.58;2.00;;;10.00;37.10;;;;;;4908742;29;20032;-88
2021/03/20 12:25:52;;;;;;;3.92;2.45;;;10.90;37.80;;;;;;4896744;29;20033;-88
2021/03/20 12:28:35;;;;;;;5.20;2.28;;;11.50;37.10;;;;;;4891606;29;20068;-88
2021/03/20 12:31:41;;;;;;;3.85;1.90;;;12.10;35.80;;;;;;4901099;29;20044;-88
2021/03/20 12:34:07;;;;;;;3.88;2.20;;;12.00;35.20;;;;;;4901669;29;20063;-87
2021/03/20 12:36:50;;;;;;;3.67;2.10;;;12.00;36.30;;;;;;4894945;29;20033;-88
2021/03/20 12:39:22;;;;;;;4.28;2.25;;;12.00;36.10;;;;;;4893646;29;20088;-86
2021/03/20 12:41:55;;;;;;;4.18;1.90;;;11.20;37.10;;;;;;4885223;29;20050;-87
2021/03/20 12:44:26;;;;;;;102.53;74.18;;;10.80;36.90;;;;;;4911781;29;20033;-86
2021/03/20 12:46:59;;;;;;;5.07;3.45;;;10.40;37.40;;;;;;4903859;29;20036;-87
2021/03/20 12:49:30;;;;;;;3.90;2.20;;;9.60;37.70;;;;;;4894468;29;20036;-86
2021/03/20 12:52:02;;;;;;;4.47;1.77;;;9.60;38.20;;;;;;4891668;29;20434;-85
2021/03/20 12:54:38;;;;;;;3.47;1.70;;;8.30;40.10;;;;;;4894441;29;20057;-86
2021/03/20 12:57:05;;;;;;;3.08;1.85;;;7.90;41.10;;;;;;4889752;29;20099;-87
2021/03/20 12:59:31;;;;;;;4.93;1.67;;;;;;;;;;4893530;29;20218;-86
2021/03/20 13:01:57;;;;;;;2.30;1.60;;;8.00;40.40;;;;;;4889023;29;20339;-87
2021/03/20 13:04:23;;;;;;;3.45;1.92;;;7.70;41.00;;;;;;4893746;29;20096;-85
2021/03/20 13:06:49;;;;;;;2.97;1.90;;;;;;;;;;4886504;29;20036;-85
2021/03/20 13:09:16;;;;;;;3.20;2.08;;;7.60;42.70;;;;;;4901913;29;20379;-86
2021/03/20 13:11:43;;;;;;;2.72;1.85;;;;;;;;;;4910876;29;20092;-86
2021/03/20 13:14:08;;;;;;;2.63;1.63;;;7.90;41.90;;;;;;4907488;29;20129;-87
2021/03/20 13:16:35;;;;;;;2.78;1.55;;;;;;;;;;4886788;29;20064;-86
2021/03/20 13:19:00;;;;;;;6.88;1.92;;;7.70;42.50;;;;;;4906350;29;20455;-86
2021/03/20 13:21:28;;;;;;;2.78;1.88;;;9.60;44.10;;;;;;4889915;29;20061;-87
2021/03/20 13:23:55;;;;;;;3.80;1.75;;;;;;;;;;4891275;29;20036;-86
2021/03/20 13:26:21;;;;;;;5.38;2.13;;;;;;;;;;4906343;29;20033;-86
2021/03/20 13:28:47;;;;;;;3.95;1.90;;;7.50;43.30;;;;;;4912972;29;20040;-86
2021/03/20 13:31:13;;;;;;;3.30;1.65;;;6.70;44.70;;;;;;4910372;29;20036;-86
2021/03/20 13:33:40;;;;;;;5.80;2.50;;;6.70;44.70;;;;;;4907018;29;20039;-85
2021/03/20 13:36:08;;;;;;;5.75;2.60;;;7.30;45.70;;;;;;4898706;29;20037;-85
2021/03/20 13:38:34;;;;;;;5.03;2.00;;;7.30;44.50;;;;;;4892258;29;20052;-84
2021/03/20 13:41:00;;;;;;;5.47;2.13;;;;;;;;;;4925901;29;20028;-87
2021/03/20 13:43:26;;;;;;;5.75;3.08;;;7.60;43.70;;;;;;4907757;29;20033;-86
2021/03/20 13:45:52;;;;;;;4.78;2.53;;;7.30;44.40;;;;;;4909781;29;20096;-85
2021/03/20 13:48:19;;;;;;;12.27;2.45;;;;;;;;;;4923874;29;20080;-85
2021/03/20 13:50:46;;;;;;;6.95;3.17;;;7.30;45.00;;;;;;4903508;29;20040;-86
2021/03/20 13:53:19;;;;;;;4.18;2.33;;;7.60;44.20;;;;;;4911204;29;20039;-85
2021/03/20 13:55:50;;;;;;;2.65;1.80;;;7.40;44.10;;;;;;4928291;29;20036;-86
2021/03/20 13:58:16;;;;;;;3.50;1.90;;;7.60;43.80;;;;;;4922013;29;20024;-86
2021/03/20 14:00:43;;;;;;;4.50;2.80;;;7.70;43.00;;;;;;4915860;29;20043;-86
2021/03/20 14:03:08;;;;;;;5.55;2.38;;;7.70;43.20;;;;;;4918900;29;20059;-87
2021/03/20 14:05:35;;;;;;;3.22;2.05;;;;;;;;;;4897129;29;20036;-85